Windsorville, Connecticut
Current Conditions -  °F | °C
As of 6:51 PM on Friday 24 Oct 2014 (Local Time) from KBDL Reporting Station
Overcast Overcast  
Wind Chill: 53°   Ceiling: 3100
Heat Index: 53°   Visibility: 10mi
Dew Point: 41°   Wind: 9mph
Humidity: 64%   Direction: 330°NNW
Pressure: 29.77"   Gusts: 17mph
Location:  41.9042°N, 72.5445°W
Report Text: KBDL 242251Z 33008G15KT 10SM OVC031 12/05 A2977 RMK AO2 SLP082 T01170050
Loading
Personal Weather Stations






























Interactive Weather Map New forecast layout! Learn more

10-Day Weather Forecast

Advertisements
Track Severe Weather on mobile